createdAt,value
2019-05-07T00:02:42.897Z,101205.53
2019-05-07T00:05:59.756Z,101207.59
2019-05-07T00:09:16.577Z,101200.05
2019-05-07T00:12:33.023Z,101205.14
2019-05-07T00:15:49.737Z,101200.49
2019-05-07T00:19:06.586Z,101204.84
2019-05-07T00:22:23.262Z,101205.25
2019-05-07T00:25:41.973Z,101201.05
2019-05-07T00:28:58.383Z,101199.77
2019-05-07T00:32:15.123Z,101201.89
2019-05-07T00:35:36.620Z,101197.69
2019-05-07T00:39:12.423Z,101207.52
2019-05-07T00:42:55.994Z,101199.03
2019-05-07T00:46:09.625Z,101203.70
2019-05-07T00:49:17.624Z,101215.16
2019-05-07T00:52:24.935Z,101209.27
2019-05-07T00:55:32.691Z,101208.77
2019-05-07T00:58:39.907Z,101206.68
2019-05-07T01:01:47.428Z,101202.84
2019-05-07T01:04:55.004Z,101201.16
2019-05-07T01:08:13.172Z,101194.38
2019-05-07T01:11:29.797Z,101199.06
2019-05-07T01:14:46.541Z,101200.80
2019-05-07T01:18:03.166Z,101204.70
2019-05-07T01:21:19.935Z,101210.20
2019-05-07T01:24:36.510Z,101200.92
2019-05-07T01:27:55.980Z,101204.74
2019-05-07T01:31:02.253Z,101205.70
2019-05-07T01:34:32.357Z,101208.68
2019-05-07T01:37:40.092Z,101209.16
2019-05-07T01:40:48.995Z,101204.10
2019-05-07T01:44:05.816Z,101214.72
2019-05-07T01:47:23.680Z,101203.70
2019-05-07T01:50:42.786Z,101206.73
2019-05-07T01:53:59.055Z,101203.00
2019-05-07T01:57:15.759Z,101212.31
2019-05-07T02:00:32.694Z,101211.05
2019-05-07T02:03:55.375Z,101214.02
2019-05-07T02:07:33.662Z,101213.24
2019-05-07T02:10:43.775Z,101216.22
2019-05-07T02:14:10.328Z,101219.14
2019-05-07T02:17:26.984Z,101224.24
2019-05-07T02:20:43.658Z,101226.29
2019-05-07T02:24:00.491Z,101227.23
2019-05-07T02:27:17.188Z,101223.84
2019-05-07T02:30:24.312Z,101230.30
2019-05-07T02:33:43.417Z,101234.09
2019-05-07T02:36:59.403Z,101229.02
2019-05-07T02:40:24.369Z,101213.31
2019-05-07T02:43:33.760Z,101217.20
2019-05-07T02:46:49.236Z,101226.06
2019-05-07T02:50:34.152Z,101220.05
2019-05-07T02:53:48.856Z,101228.16
2019-05-07T02:56:56.326Z,101224.80
2019-05-07T03:00:04.886Z,101226.91
2019-05-07T03:03:13.723Z,101230.70
2019-05-07T03:06:23.312Z,101223.95
2019-05-07T03:09:42.802Z,101223.47
2019-05-07T03:12:58.475Z,101231.58
2019-05-07T03:16:14.934Z,101233.70
2019-05-07T03:19:33.227Z,101234.12
2019-05-07T03:22:53.578Z,101232.48
2019-05-07T03:26:15.205Z,101233.78
2019-05-07T03:29:23.939Z,101229.16
2019-05-07T03:32:48.220Z,101223.23
2019-05-07T03:35:57.303Z,101225.00
2019-05-07T03:39:05.317Z,101225.00
2019-05-07T03:42:13.429Z,101221.19
2019-05-07T03:45:54.038Z,101219.50
2019-05-07T03:49:27.213Z,101222.47
2019-05-07T03:52:34.814Z,101225.88
2019-05-07T03:55:53.705Z,101227.13
2019-05-07T03:59:09.564Z,101222.91
2019-05-07T04:02:26.346Z,101230.88
2019-05-07T04:05:34.114Z,101226.29
2019-05-07T04:08:43.190Z,101227.98
2019-05-07T04:11:52.840Z,101229.23
2019-05-07T04:14:59.083Z,101230.08
2019-05-07T04:18:07.435Z,101225.02
2019-05-07T04:21:23.883Z,101222.39
2019-05-07T04:24:47.923Z,101224.09
2019-05-07T04:28:04.818Z,101222.39
2019-05-07T04:31:14.091Z,101226.66
2019-05-07T04:34:40.194Z,101226.63
2019-05-07T04:37:47.740Z,101229.59
2019-05-07T04:40:55.579Z,101227.89
2019-05-07T04:44:03.774Z,101236.33
2019-05-07T04:47:09.605Z,101227.44
2019-05-07T04:50:39.343Z,101233.31
2019-05-07T04:53:54.071Z,101236.66
2019-05-07T04:57:25.496Z,101239.61
2019-05-07T05:00:43.083Z,101242.92
2019-05-07T05:03:53.223Z,101245.54
2019-05-07T05:07:09.021Z,101240.01
2019-05-07T05:10:25.679Z,101247.97
2019-05-07T05:13:44.541Z,101246.66
2019-05-07T05:17:02.049Z,101241.52
2019-05-07T05:20:10.007Z,101251.55
2019-05-07T05:23:32.292Z,101255.27
2019-05-07T05:26:39.319Z,101250.20
2019-05-07T05:29:46.561Z,101255.66
2019-05-07T05:32:53.991Z,101260.19
2019-05-07T05:36:03.088Z,101252.91
2019-05-07T05:39:22.331Z,101258.59
2019-05-07T05:42:43.725Z,101260.98
2019-05-07T05:45:53.023Z,101263.52
2019-05-07T05:49:02.638Z,101269.80
2019-05-07T05:52:33.415Z,101259.45
2019-05-07T05:56:02.261Z,101257.19
2019-05-07T05:59:37.129Z,101259.75
2019-05-07T06:02:53.267Z,101262.55
2019-05-07T06:06:21.822Z,101263.23
2019-05-07T06:09:42.250Z,101265.13
2019-05-07T06:12:58.548Z,101268.66
2019-05-07T06:16:12.432Z,101261.22
2019-05-07T06:19:34.356Z,101265.23
2019-05-07T06:23:33.231Z,101266.98
2019-05-07T06:26:42.555Z,101263.47
2019-05-07T06:30:02.070Z,101269.91
2019-05-07T06:33:08.379Z,101268.93
2019-05-07T06:36:15.740Z,101278.45
2019-05-07T06:39:27.083Z,101273.13
2019-05-07T06:43:04.000Z,101278.11
2019-05-07T06:46:12.582Z,101278.31
2019-05-07T06:49:22.163Z,101278.79
2019-05-07T06:52:29.244Z,101283.69
2019-05-07T06:55:46.115Z,101278.14
2019-05-07T06:59:07.610Z,101282.06
2019-05-07T07:02:32.891Z,101290.03
2019-05-07T07:06:02.726Z,101287.57
2019-05-07T07:09:22.243Z,101284.35
2019-05-07T07:12:30.203Z,101283.89
2019-05-07T07:15:37.517Z,101280.42
2019-05-07T07:18:51.834Z,101274.54
2019-05-07T07:22:02.438Z,101270.30
2019-05-07T07:25:11.936Z,101272.16
2019-05-07T07:28:19.317Z,101274.42
2019-05-07T07:31:43.228Z,101269.58
2019-05-07T07:34:53.211Z,101271.20
2019-05-07T07:38:27.745Z,101264.27
2019-05-07T07:41:42.170Z,101267.49
2019-05-07T07:44:51.947Z,101269.22
2019-05-07T07:47:59.304Z,101262.27
2019-05-07T07:51:06.720Z,101260.59
2019-05-07T07:54:14.126Z,101265.77
2019-05-07T07:57:37.794Z,101265.03
2019-05-07T08:01:07.836Z,101261.56
2019-05-07T08:04:15.567Z,101262.21
2019-05-07T08:07:23.048Z,101268.17
2019-05-07T08:10:32.493Z,101267.75
2019-05-07T08:13:57.921Z,101264.24
2019-05-07T08:17:14.545Z,101264.52
2019-05-07T08:20:32.593Z,101258.89
2019-05-07T08:34:56.899Z,101246.06
2019-05-07T08:38:04.260Z,101252.87
2019-05-07T08:41:12.028Z,101247.03
2019-05-07T08:44:35.229Z,101244.25
2019-05-07T08:48:13.396Z,101246.44
2019-05-07T08:51:37.589Z,101245.28
2019-05-07T08:54:44.964Z,101253.42
2019-05-07T08:57:52.555Z,101255.56
2019-05-07T09:00:59.879Z,101255.30
2019-05-07T09:04:07.327Z,101259.63
2019-05-07T09:07:24.157Z,101247.06
2019-05-07T09:10:42.260Z,101250.09
2019-05-07T09:13:59.308Z,101246.13
2019-05-07T09:17:15.810Z,101254.16
2019-05-07T09:20:23.384Z,101254.08
2019-05-07T09:23:31.709Z,101239.23
2019-05-07T09:26:47.406Z,101245.02
2019-05-07T09:30:12.653Z,101249.70
2019-05-07T09:33:44.498Z,101241.92
2019-05-07T09:36:53.915Z,101234.72
2019-05-07T09:40:02.810Z,101234.78
2019-05-07T09:43:21.908Z,101230.91
2019-05-07T09:46:38.092Z,101226.83
2019-05-07T09:49:43.795Z,101238.66
2019-05-07T09:53:02.299Z,101229.13
2019-05-07T09:56:18.809Z,101227.13
2019-05-07T09:59:35.439Z,101223.09
2019-05-07T10:02:42.618Z,101222.27
2019-05-07T10:05:59.413Z,101231.05
2019-05-07T10:09:16.141Z,101222.61
2019-05-07T10:12:54.751Z,101236.66
2019-05-07T10:16:04.291Z,101236.91
2019-05-07T10:19:28.630Z,101237.37
2019-05-07T10:22:45.473Z,101237.17
2019-05-07T10:26:08.162Z,101228.24
2019-05-07T10:29:24.811Z,101236.17
2019-05-07T10:32:42.293Z,101239.17
2019-05-07T10:35:49.709Z,101231.08
2019-05-07T10:38:55.377Z,101228.78
2019-05-07T10:42:02.823Z,101228.71
2019-05-07T10:45:19.160Z,101223.34
2019-05-07T10:48:35.323Z,101226.28
2019-05-07T10:51:55.756Z,101222.95
2019-05-07T10:55:12.642Z,101227.30
2019-05-07T10:58:29.277Z,101223.63
2019-05-07T11:01:52.082Z,101218.55
2019-05-07T11:04:59.626Z,101219.61
2019-05-07T11:08:16.221Z,101218.62
2019-05-07T11:11:22.989Z,101221.73
2019-05-07T11:14:32.164Z,101220.52
2019-05-07T11:17:54.223Z,101217.08
2019-05-07T11:21:03.042Z,101221.47
2019-05-07T11:24:11.977Z,101214.39
2019-05-07T11:27:18.746Z,101212.50
2019-05-07T11:30:35.502Z,101212.84
2019-05-07T11:33:52.197Z,101210.77
2019-05-07T11:37:09.131Z,101200.38
2019-05-07T11:40:25.555Z,101193.04
2019-05-07T11:44:02.808Z,101188.12
2019-05-07T11:47:25.563Z,101188.60
2019-05-07T11:50:38.108Z,101183.90
2019-05-07T11:54:15.640Z,101176.75
2019-05-07T11:57:22.941Z,101178.48
2019-05-07T12:00:53.773Z,101183.96
2019-05-07T12:04:02.022Z,101180.02
2019-05-07T12:07:11.771Z,101180.02
2019-05-07T12:10:18.721Z,101181.77
2019-05-07T12:13:26.252Z,101174.42
2019-05-07T12:16:42.992Z,101172.14
2019-05-07T12:20:02.414Z,101171.14
2019-05-07T12:23:11.995Z,101173.51
2019-05-07T12:26:18.912Z,101175.77
2019-05-07T12:29:25.819Z,101164.78
2019-05-07T12:32:51.989Z,101163.88
2019-05-07T12:35:59.361Z,101160.01
2019-05-07T12:39:08.709Z,101163.26
2019-05-07T12:42:15.071Z,101162.80
2019-05-07T12:45:22.883Z,101165.91
2019-05-07T12:48:39.770Z,101149.62
2019-05-07T12:52:05.331Z,101150.58
2019-05-07T12:55:32.398Z,101151.36
2019-05-07T12:59:27.775Z,101144.74
2019-05-07T13:03:06.876Z,101145.61
2019-05-07T13:06:32.619Z,101143.72
2019-05-07T13:09:40.059Z,101138.17
2019-05-07T13:12:47.337Z,101138.23
2019-05-07T13:16:10.160Z,101132.33
2019-05-07T13:19:26.783Z,101134.59
2019-05-07T13:22:32.672Z,101137.83
2019-05-07T13:25:49.171Z,101119.64
2019-05-07T13:29:07.763Z,101119.52
2019-05-07T13:32:25.166Z,101118.33
2019-05-07T13:35:32.625Z,101115.28
2019-05-07T13:38:51.859Z,101111.78
2019-05-07T13:42:12.982Z,101118.33
2019-05-07T13:45:26.481Z,101117.78
2019-05-07T13:48:33.986Z,101115.37
2019-05-07T13:51:41.855Z,101110.48
2019-05-07T13:54:48.425Z,101103.88
2019-05-07T13:57:55.695Z,101103.41
2019-05-07T14:01:23.616Z,101108.20
2019-05-07T14:04:54.487Z,101100.49
2019-05-07T14:08:14.207Z,101099.38
2019-05-07T14:11:22.404Z,101115.72
2019-05-07T14:14:39.089Z,101116.93
2019-05-07T14:18:04.930Z,101114.92
2019-05-07T14:21:21.924Z,101112.91
2019-05-07T14:24:29.577Z,101115.66
2019-05-07T14:27:35.319Z,101114.45
2019-05-07T14:30:42.085Z,101117.55
2019-05-07T14:34:02.866Z,101110.73
2019-05-07T14:37:23.701Z,101107.55
2019-05-07T14:40:29.443Z,101107.69
2019-05-07T14:43:49.473Z,101096.55
2019-05-07T14:46:57.081Z,101101.16
2019-05-07T14:50:04.832Z,101093.59
2019-05-07T14:53:24.453Z,101101.39
2019-05-07T14:56:32.396Z,101099.66
2019-05-07T14:59:39.850Z,101096.16
2019-05-07T15:02:47.304Z,101093.66
2019-05-07T15:05:53.900Z,101088.50
2019-05-07T15:09:01.151Z,101091.73
2019-05-07T15:12:11.448Z,101079.11
2019-05-07T15:15:18.120Z,101080.69
2019-05-07T15:18:55.135Z,101081.50
2019-05-07T15:22:43.594Z,101082.22
2019-05-07T15:25:39.429Z,101082.13
2019-05-07T15:28:49.649Z,101071.55
2019-05-07T15:32:09.624Z,101064.01
2019-05-07T15:35:17.294Z,101059.54
2019-05-07T15:38:24.558Z,101061.03
2019-05-07T15:41:32.201Z,101065.73
2019-05-07T15:44:39.477Z,101055.78
2019-05-07T15:47:49.002Z,101060.80
2019-05-07T15:50:56.614Z,101051.59
2019-05-07T15:54:04.159Z,101050.75
2019-05-07T15:57:14.101Z,101056.29
2019-05-07T16:00:23.373Z,101044.59
2019-05-07T16:03:35.398Z,101056.20
2019-05-07T16:06:42.937Z,101047.25
2019-05-07T16:10:01.934Z,101041.37
2019-05-07T16:13:23.801Z,101032.80
2019-05-07T16:16:33.188Z,101039.89
2019-05-07T16:19:42.518Z,101037.77
2019-05-07T16:22:55.121Z,101037.26
2019-05-07T16:26:02.402Z,101037.15
2019-05-07T16:29:22.370Z,101024.57
2019-05-07T16:32:38.605Z,101032.38
2019-05-07T16:36:02.113Z,101031.86
2019-05-07T16:39:11.889Z,101027.25
2019-05-07T16:42:18.687Z,101030.97
2019-05-07T16:45:24.420Z,101026.16
2019-05-07T16:48:49.395Z,101019.25
2019-05-07T16:52:06.019Z,101017.52
2019-05-07T16:55:36.797Z,101021.56
2019-05-07T16:58:48.176Z,101022.12
2019-05-07T17:01:57.428Z,101022.97
2019-05-07T17:05:12.475Z,101017.31
2019-05-07T17:08:47.794Z,101013.67
2019-05-07T17:11:55.303Z,101015.96
2019-05-07T17:15:03.121Z,101017.50
2019-05-07T17:18:21.714Z,101015.01
2019-05-07T17:21:38.053Z,101012.73
2019-05-07T17:24:54.723Z,101006.31
2019-05-07T17:28:20.037Z,101008.05
2019-05-07T17:31:27.400Z,101010.70
2019-05-07T17:34:34.795Z,101002.42
2019-05-07T17:37:42.171Z,101005.43
2019-05-07T17:40:49.579Z,101004.28
2019-05-07T17:43:55.543Z,100997.97
2019-05-07T17:47:12.771Z,100996.61
2019-05-07T17:50:23.005Z,100996.16
2019-05-07T17:53:31.989Z,100999.16
2019-05-07T17:56:39.551Z,100990.77
2019-05-07T17:59:46.911Z,100998.14
2019-05-07T18:03:13.900Z,100990.93
2019-05-07T18:06:19.835Z,100988.36
2019-05-07T18:09:27.375Z,100987.08
2019-05-07T18:12:34.992Z,100978.83
2019-05-07T18:15:42.806Z,100980.84
2019-05-07T18:18:52.024Z,100974.71
2019-05-07T18:21:59.398Z,100972.17
2019-05-07T18:25:06.970Z,100969.63
2019-05-07T18:28:16.097Z,100971.85
2019-05-07T18:31:47.582Z,100962.43
2019-05-07T18:34:54.428Z,100963.49
2019-05-07T18:38:02.618Z,100964.41
2019-05-07T18:41:12.209Z,100968.89
2019-05-07T18:44:19.290Z,100965.81
2019-05-07T18:47:36.085Z,100968.72
2019-05-07T18:50:52.777Z,100971.70
2019-05-07T18:54:26.904Z,100957.59
2019-05-07T18:57:33.826Z,100960.84
2019-05-07T19:00:45.233Z,100972.96
2019-05-07T19:03:52.671Z,100973.26
2019-05-07T19:06:58.886Z,100981.77
2019-05-07T19:10:06.618Z,100975.73
2019-05-07T19:13:14.182Z,100975.97
2019-05-07T19:16:22.876Z,100977.66
2019-05-07T19:19:38.421Z,100972.82
2019-05-07T19:22:45.754Z,100973.67
2019-05-07T19:26:02.609Z,100977.70
2019-05-07T19:29:19.206Z,100983.67
2019-05-07T19:32:35.984Z,100985.30
2019-05-07T19:35:55.620Z,100969.60
2019-05-07T19:39:12.701Z,100971.98
2019-05-07T19:42:20.168Z,100974.66
2019-05-07T19:45:27.674Z,100977.53
2019-05-07T19:48:35.074Z,100970.17
2019-05-07T19:51:42.885Z,100964.94
2019-05-07T19:55:04.144Z,100966.28
2019-05-07T19:58:08.943Z,100973.48
2019-05-07T20:01:19.437Z,100973.34
2019-05-07T20:04:26.979Z,100968.95
2019-05-07T20:07:34.406Z,100967.46
2019-05-07T20:10:48.162Z,100966.48
2019-05-07T20:13:55.350Z,100961.21
2019-05-07T20:17:02.787Z,100957.20
2019-05-07T20:20:22.010Z,100948.77
2019-05-07T20:23:28.996Z,100945.28
2019-05-07T20:26:36.501Z,100943.87
2019-05-07T20:29:43.907Z,100942.37
2019-05-07T20:32:52.270Z,100942.97
2019-05-07T20:35:58.099Z,100942.27
2019-05-07T20:39:08.008Z,100942.91
2019-05-07T20:42:15.579Z,100941.36
2019-05-07T20:45:23.871Z,100932.64
2019-05-07T20:48:32.474Z,100934.16
2019-05-07T20:51:41.869Z,100925.00
2019-05-07T20:54:54.371Z,100927.27
2019-05-07T20:58:03.145Z,100918.94
2019-05-07T21:01:12.443Z,100921.19
2019-05-07T21:04:22.312Z,100922.92
2019-05-07T21:07:29.228Z,100913.74
2019-05-07T21:10:36.559Z,100913.45
2019-05-07T21:13:44.628Z,100916.94
2019-05-07T21:16:52.126Z,100913.21
2019-05-07T21:19:59.503Z,100914.19
2019-05-07T21:23:06.981Z,100909.98
2019-05-07T21:26:14.441Z,100916.85
2019-05-07T21:29:21.867Z,100912.58
2019-05-07T21:32:38.633Z,100915.09
2019-05-07T21:35:55.441Z,100905.91
2019-05-07T21:39:13.440Z,100900.41
2019-05-07T21:42:22.911Z,100899.73
2019-05-07T21:45:42.320Z,100893.89
2019-05-07T21:48:58.832Z,100887.75
2019-05-07T21:52:06.088Z,100884.56
2019-05-07T21:55:32.534Z,100884.61
2019-05-07T21:59:25.353Z,100878.14
2019-05-07T22:02:32.850Z,100880.02
2019-05-07T22:05:39.384Z,100871.37
2019-05-07T22:08:47.036Z,100867.75
2019-05-07T22:11:54.522Z,100862.20
2019-05-07T22:15:04.266Z,100871.18
2019-05-07T22:18:22.509Z,100862.88
2019-05-07T22:21:38.693Z,100861.42
2019-05-07T22:24:55.382Z,100856.51
2019-05-07T22:28:14.018Z,100854.05
2019-05-07T22:31:53.919Z,100840.02
2019-05-07T22:35:13.252Z,100842.64
2019-05-07T22:38:41.273Z,100830.55
2019-05-07T22:42:04.143Z,100825.00
2019-05-07T22:45:22.697Z,100822.23
2019-05-07T22:48:32.339Z,100822.63
2019-05-07T22:51:39.415Z,100815.47
2019-05-07T22:54:46.971Z,100815.86
2019-05-07T22:58:16.262Z,100811.73
2019-05-07T23:01:23.767Z,100808.32
2019-05-07T23:04:32.539Z,100805.50
2019-05-07T23:07:42.031Z,100809.93
2019-05-07T23:10:49.513Z,100800.05
2019-05-07T23:13:56.904Z,100800.91
2019-05-07T23:17:04.359Z,100795.58
2019-05-07T23:20:11.867Z,100791.66
2019-05-07T23:23:28.753Z,100785.70
2019-05-07T23:26:54.029Z,100779.05
2019-05-07T23:30:02.592Z,100784.25
2019-05-07T23:33:19.642Z,100779.22
2019-05-07T23:36:36.223Z,100770.92
2019-05-07T23:39:58.024Z,100771.41
2019-05-07T23:43:06.858Z,100773.32
2019-05-07T23:46:14.172Z,100771.70
2019-05-07T23:49:24.615Z,100768.06
2019-05-07T23:52:31.885Z,100765.56
2019-05-07T23:55:39.307Z,100759.70
2019-05-07T23:58:46.646Z,100755.96
